sensor_id;sensor_type;location;lat;lon;timestamp;temperature;humidity
13409;DHT22;6775;49.574;11.170;2022-09-12T00:00:05;12.60;99.90
13409;DHT22;6775;49.574;11.170;2022-09-12T00:02:35;12.60;99.90
13409;DHT22;6775;49.574;11.170;2022-09-12T00:05:04;12.70;99.90
13409;DHT22;6775;49.574;11.170;2022-09-12T00:07:36;12.70;99.90
13409;DHT22;6775;49.574;11.170;2022-09-12T00:10:05;12.70;99.90
13409;DHT22;6775;49.574;11.170;2022-09-12T00:12:33;12.70;99.90
13409;DHT22;6775;49.574;11.170;2022-09-12T00:15:01;12.70;99.90
13409;DHT22;6775;49.574;11.170;2022-09-12T00:17:29;12.70;99.90
13409;DHT22;6775;49.574;11.170;2022-09-12T00:19:57;12.70;99.90
13409;DHT22;6775;49.574;11.170;2022-09-12T00:22:25;12.60;99.90
13409;DHT22;6775;49.574;11.170;2022-09-12T00:24:54;12.60;99.90
13409;DHT22;6775;49.574;11.170;2022-09-12T00:27:22;12.50;99.90
13409;DHT22;6775;49.574;11.170;2022-09-12T00:29:50;12.40;99.90
13409;DHT22;6775;49.574;11.170;2022-09-12T00:32:18;12.30;99.90
13409;DHT22;6775;49.574;11.170;2022-09-12T00:34:46;12.20;99.90
13409;DHT22;6775;49.574;11.170;2022-09-12T00:37:14;12.20;99.90
13409;DHT22;6775;49.574;11.170;2022-09-12T00:39:42;12.20;99.90
13409;DHT22;6775;49.574;11.170;2022-09-12T00:42:11;12.20;99.90
13409;DHT22;6775;49.574;11.170;2022-09-12T00:44:46;12.20;99.90
13409;DHT22;6775;49.574;11.170;2022-09-12T00:47:21;12.20;99.90
13409;DHT22;6775;49.574;11.170;2022-09-12T00:49:57;12.10;99.90
13409;DHT22;6775;49.574;11.170;2022-09-12T00:52:29;12.10;99.90
13409;DHT22;6775;49.574;11.170;2022-09-12T00:55:02;12.10;99.90
13409;DHT22;6775;49.574;11.170;2022-09-12T00:57:36;12.10;99.90
13409;DHT22;6775;49.574;11.170;2022-09-12T01:00:09;12.10;99.90
13409;DHT22;6775;49.574;11.170;2022-09-12T01:02:42;12.10;99.90
13409;DHT22;6775;49.574;11.170;2022-09-12T01:05:12;12.10;99.90
13409;DHT22;6775;49.574;11.170;2022-09-12T01:07:40;12.10;99.90
13409;DHT22;6775;49.574;11.170;2022-09-12T01:10:10;12.00;99.90
13409;DHT22;6775;49.574;11.170;2022-09-12T01:12:41;12.00;99.90
13409;DHT22;6775;49.574;11.170;2022-09-12T01:15:09;11.90;99.90
13409;DHT22;6775;49.574;11.170;2022-09-12T01:17:47;11.90;99.90
13409;DHT22;6775;49.574;11.170;2022-09-12T01:20:34;11.90;99.90
13409;DHT22;6775;49.574;11.170;2022-09-12T01:26:23;11.80;99.90
13409;DHT22;6775;49.574;11.170;2022-09-12T01:29:13;11.70;99.90
13409;DHT22;6775;49.574;11.170;2022-09-12T01:31:53;11.60;99.90
13409;DHT22;6775;49.574;11.170;2022-09-12T01:34:25;11.60;99.90
13409;DHT22;6775;49.574;11.170;2022-09-12T01:37:02;11.70;99.90
13409;DHT22;6775;49.574;11.170;2022-09-12T01:39:39;11.70;99.90
13409;DHT22;6775;49.574;11.170;2022-09-12T01:42:14;11.70;99.90
13409;DHT22;6775;49.574;11.170;2022-09-12T01:44:48;11.70;99.90
13409;DHT22;6775;49.574;11.170;2022-09-12T01:47:22;11.70;99.90
13409;DHT22;6775;49.574;11.170;2022-09-12T01:49:57;11.70;99.90
13409;DHT22;6775;49.574;11.170;2022-09-12T01:52:30;11.70;99.90
13409;DHT22;6775;49.574;11.170;2022-09-12T01:55:05;11.70;99.90
13409;DHT22;6775;49.574;11.170;2022-09-12T01:57:39;11.70;99.90
13409;DHT22;6775;49.574;11.170;2022-09-12T02:00:10;11.70;99.90
13409;DHT22;6775;49.574;11.170;2022-09-12T02:02:43;11.70;99.90
13409;DHT22;6775;49.574;11.170;2022-09-12T02:05:19;11.70;99.90
13409;DHT22;6775;49.574;11.170;2022-09-12T02:07:50;11.70;99.90
13409;DHT22;6775;49.574;11.170;2022-09-12T02:10:20;11.70;99.90
13409;DHT22;6775;49.574;11.170;2022-09-12T02:12:53;11.60;99.90
13409;DHT22;6775;49.574;11.170;2022-09-12T02:15:27;11.70;99.90
13409;DHT22;6775;49.574;11.170;2022-09-12T02:17:59;11.60;99.90
13409;DHT22;6775;49.574;11.170;2022-09-12T02:20:29;11.50;99.90
13409;DHT22;6775;49.574;11.170;2022-09-12T02:23:17;11.50;99.90
13409;DHT22;6775;49.574;11.170;2022-09-12T02:25:50;11.40;99.90
13409;DHT22;6775;49.574;11.170;2022-09-12T02:28:22;11.40;99.90
13409;DHT22;6775;49.574;11.170;2022-09-12T02:30:57;11.40;99.90
13409;DHT22;6775;49.574;11.170;2022-09-12T02:33:31;11.50;99.90
13409;DHT22;6775;49.574;11.170;2022-09-12T02:36:05;11.50;99.90
13409;DHT22;6775;49.574;11.170;2022-09-12T02:38:39;11.50;99.90
13409;DHT22;6775;49.574;11.170;2022-09-12T02:41:10;11.50;99.90
13409;DHT22;6775;49.574;11.170;2022-09-12T02:43:38;11.50;99.90
13409;DHT22;6775;49.574;11.170;2022-09-12T02:46:17;11.40;99.90
13409;DHT22;6775;49.574;11.170;2022-09-12T02:48:48;11.40;99.90
13409;DHT22;6775;49.574;11.170;2022-09-12T02:51:16;11.40;99.90
13409;DHT22;6775;49.574;11.170;2022-09-12T02:53:49;11.30;99.90
13409;DHT22;6775;49.574;11.170;2022-09-12T02:56:20;11.30;99.90
13409;DHT22;6775;49.574;11.170;2022-09-12T02:58:49;11.30;99.90
13409;DHT22;6775;49.574;11.170;2022-09-12T03:01:26;11.40;99.90
13409;DHT22;6775;49.574;11.170;2022-09-12T03:04:23;11.30;99.90
13409;DHT22;6775;49.574;11.170;2022-09-12T03:07:04;11.30;99.90
13409;DHT22;6775;49.574;11.170;2022-09-12T03:09:44;11.30;99.90
13409;DHT22;6775;49.574;11.170;2022-09-12T03:12:23;11.20;99.90
13409;DHT22;6775;49.574;11.170;2022-09-12T03:15:06;11.20;99.90
13409;DHT22;6775;49.574;11.170;2022-09-12T03:17:46;11.30;99.90
13409;DHT22;6775;49.574;11.170;2022-09-12T03:20:24;11.30;99.90
13409;DHT22;6775;49.574;11.170;2022-09-12T03:23:00;11.20;99.90
13409;DHT22;6775;49.574;11.170;2022-09-12T03:25:33;11.20;99.90
13409;DHT22;6775;49.574;11.170;2022-09-12T03:28:06;11.20;99.90
13409;DHT22;6775;49.574;11.170;2022-09-12T03:30:37;11.10;99.90
13409;DHT22;6775;49.574;11.170;2022-09-12T03:33:09;11.10;99.90
13409;DHT22;6775;49.574;11.170;2022-09-12T03:35:38;11.10;99.90
13409;DHT22;6775;49.574;11.170;2022-09-12T03:38:06;11.10;99.90
13409;DHT22;6775;49.574;11.170;2022-09-12T03:40:34;11.10;99.90
13409;DHT22;6775;49.574;11.170;2022-09-12T03:43:02;11.10;99.90
13409;DHT22;6775;49.574;11.170;2022-09-12T03:45:30;11.10;99.90
13409;DHT22;6775;49.574;11.170;2022-09-12T03:47:58;11.10;99.90
13409;DHT22;6775;49.574;11.170;2022-09-12T03:50:26;11.10;99.90
13409;DHT22;6775;49.574;11.170;2022-09-12T03:52:57;11.20;99.90
13409;DHT22;6775;49.574;11.170;2022-09-12T03:55:25;11.20;99.90
13409;DHT22;6775;49.574;11.170;2022-09-12T03:57:53;11.20;99.90
13409;DHT22;6775;49.574;11.170;2022-09-12T04:00:21;11.10;99.90
13409;DHT22;6775;49.574;11.170;2022-09-12T04:02:53;11.10;99.90
13409;DHT22;6775;49.574;11.170;2022-09-12T04:05:21;11.10;99.90
13409;DHT22;6775;49.574;11.170;2022-09-12T04:07:49;11.20;99.90
13409;DHT22;6775;49.574;11.170;2022-09-12T04:10:18;11.20;99.90
13409;DHT22;6775;49.574;11.170;2022-09-12T04:12:46;11.20;99.90
13409;DHT22;6775;49.574;11.170;2022-09-12T04:15:14;11.20;99.90
13409;DHT22;6775;49.574;11.170;2022-09-12T04:17:42;11.20;99.90
13409;DHT22;6775;49.574;11.170;2022-09-12T04:20:09;11.20;99.90
13409;DHT22;6775;49.574;11.170;2022-09-12T04:22:37;11.10;99.90
13409;DHT22;6775;49.574;11.170;2022-09-12T04:25:06;11.10;99.90
13409;DHT22;6775;49.574;11.170;2022-09-12T04:27:36;11.00;99.90
13409;DHT22;6775;49.574;11.170;2022-09-12T04:30:05;11.00;99.90
13409;DHT22;6775;49.574;11.170;2022-09-12T04:32:33;10.90;99.90
13409;DHT22;6775;49.574;11.170;2022-09-12T04:35:00;10.90;99.90
13409;DHT22;6775;49.574;11.170;2022-09-12T04:37:28;10.90;99.90
13409;DHT22;6775;49.574;11.170;2022-09-12T04:39:56;10.80;99.90
13409;DHT22;6775;49.574;11.170;2022-09-12T04:42:24;10.80;99.90
13409;DHT22;6775;49.574;11.170;2022-09-12T04:44:54;10.80;99.90
13409;DHT22;6775;49.574;11.170;2022-09-12T04:47:21;10.80;99.90
13409;DHT22;6775;49.574;11.170;2022-09-12T04:49:49;10.70;99.90
13409;DHT22;6775;49.574;11.170;2022-09-12T04:52:17;10.80;99.90
13409;DHT22;6775;49.574;11.170;2022-09-12T04:54:45;10.80;99.90
13409;DHT22;6775;49.574;11.170;2022-09-12T04:57:13;10.90;99.90
13409;DHT22;6775;49.574;11.170;2022-09-12T04:59:41;10.90;99.90
13409;DHT22;6775;49.574;11.170;2022-09-12T05:02:10;10.90;99.90
13409;DHT22;6775;49.574;11.170;2022-09-12T05:04:38;10.90;99.90
13409;DHT22;6775;49.574;11.170;2022-09-12T05:07:06;10.90;99.90
13409;DHT22;6775;49.574;11.170;2022-09-12T05:09:34;10.90;99.90
13409;DHT22;6775;49.574;11.170;2022-09-12T05:12:01;10.80;99.90
13409;DHT22;6775;49.574;11.170;2022-09-12T05:14:32;10.80;99.90
13409;DHT22;6775;49.574;11.170;2022-09-12T05:17:00;10.80;99.90
13409;DHT22;6775;49.574;11.170;2022-09-12T05:19:30;10.80;99.90
13409;DHT22;6775;49.574;11.170;2022-09-12T05:21:58;10.80;99.90
13409;DHT22;6775;49.574;11.170;2022-09-12T05:24:26;10.80;99.90
13409;DHT22;6775;49.574;11.170;2022-09-12T05:26:54;10.90;99.90
13409;DHT22;6775;49.574;11.170;2022-09-12T05:29:22;10.90;99.90
13409;DHT22;6775;49.574;11.170;2022-09-12T05:31:51;10.90;99.90
13409;DHT22;6775;49.574;11.170;2022-09-12T05:34:19;10.90;99.90
13409;DHT22;6775;49.574;11.170;2022-09-12T05:36:48;10.90;99.90
13409;DHT22;6775;49.574;11.170;2022-09-12T05:39:16;11.00;99.90
13409;DHT22;6775;49.574;11.170;2022-09-12T05:41:44;11.10;99.90
13409;DHT22;6775;49.574;11.170;2022-09-12T05:44:13;11.10;99.90
13409;DHT22;6775;49.574;11.170;2022-09-12T05:46:43;11.20;99.90
13409;DHT22;6775;49.574;11.170;2022-09-12T05:49:12;11.20;99.90
13409;DHT22;6775;49.574;11.170;2022-09-12T05:51:42;11.20;99.90
13409;DHT22;6775;49.574;11.170;2022-09-12T05:54:13;11.30;99.90
13409;DHT22;6775;49.574;11.170;2022-09-12T05:56:43;11.30;99.90
13409;DHT22;6775;49.574;11.170;2022-09-12T05:59:13;11.40;99.90
13409;DHT22;6775;49.574;11.170;2022-09-12T06:01:41;11.50;99.90
13409;DHT22;6775;49.574;11.170;2022-09-12T06:04:09;11.60;99.90
13409;DHT22;6775;49.574;11.170;2022-09-12T06:06:40;11.60;99.90
13409;DHT22;6775;49.574;11.170;2022-09-12T06:09:12;11.80;99.90
13409;DHT22;6775;49.574;11.170;2022-09-12T06:11:41;11.80;99.90
13409;DHT22;6775;49.574;11.170;2022-09-12T06:14:10;11.90;99.90
13409;DHT22;6775;49.574;11.170;2022-09-12T06:16:38;12.00;99.90
13409;DHT22;6775;49.574;11.170;2022-09-12T06:19:13;12.10;99.90
13409;DHT22;6775;49.574;11.170;2022-09-12T06:21:41;12.30;99.90
13409;DHT22;6775;49.574;11.170;2022-09-12T06:24:09;12.40;99.90
13409;DHT22;6775;49.574;11.170;2022-09-12T06:26:38;12.50;99.90
13409;DHT22;6775;49.574;11.170;2022-09-12T06:29:06;12.60;99.90
13409;DHT22;6775;49.574;11.170;2022-09-12T06:31:35;12.70;99.90
13409;DHT22;6775;49.574;11.170;2022-09-12T06:34:05;12.80;99.90
13409;DHT22;6775;49.574;11.170;2022-09-12T06:36:36;12.90;99.90
13409;DHT22;6775;49.574;11.170;2022-09-12T06:39:08;12.90;99.90
13409;DHT22;6775;49.574;11.170;2022-09-12T06:41:38;13.00;99.90
13409;DHT22;6775;49.574;11.170;2022-09-12T06:44:11;13.10;99.90
13409;DHT22;6775;49.574;11.170;2022-09-12T06:46:40;13.20;99.90
13409;DHT22;6775;49.574;11.170;2022-09-12T06:49:08;13.30;99.90
13409;DHT22;6775;49.574;11.170;2022-09-12T06:51:36;13.40;99.90
13409;DHT22;6775;49.574;11.170;2022-09-12T06:54:04;13.50;99.90
13409;DHT22;6775;49.574;11.170;2022-09-12T06:56:32;13.60;99.90
13409;DHT22;6775;49.574;11.170;2022-09-12T06:59:01;13.70;99.90
13409;DHT22;6775;49.574;11.170;2022-09-12T07:01:30;13.90;99.90
13409;DHT22;6775;49.574;11.170;2022-09-12T07:04:00;13.90;99.90
13409;DHT22;6775;49.574;11.170;2022-09-12T07:06:33;14.00;99.90
13409;DHT22;6775;49.574;11.170;2022-09-12T07:09:03;14.10;99.90
13409;DHT22;6775;49.574;11.170;2022-09-12T07:11:33;14.20;99.90
13409;DHT22;6775;49.574;11.170;2022-09-12T07:14:04;14.20;99.90
13409;DHT22;6775;49.574;11.170;2022-09-12T07:16:34;14.40;99.90
13409;DHT22;6775;49.574;11.170;2022-09-12T07:19:04;14.50;99.90
13409;DHT22;6775;49.574;11.170;2022-09-12T07:21:32;14.60;99.90
13409;DHT22;6775;49.574;11.170;2022-09-12T07:24:05;14.70;99.90
13409;DHT22;6775;49.574;11.170;2022-09-12T07:26:34;14.80;99.90
13409;DHT22;6775;49.574;11.170;2022-09-12T07:29:03;14.90;99.90
13409;DHT22;6775;49.574;11.170;2022-09-12T07:31:51;15.10;99.90
13409;DHT22;6775;49.574;11.170;2022-09-12T07:34:20;15.20;99.90
13409;DHT22;6775;49.574;11.170;2022-09-12T07:36:47;15.40;99.90
13409;DHT22;6775;49.574;11.170;2022-09-12T07:39:15;15.50;99.90
13409;DHT22;6775;49.574;11.170;2022-09-12T07:41:43;15.60;99.90
13409;DHT22;6775;49.574;11.170;2022-09-12T07:44:12;15.80;99.90
13409;DHT22;6775;49.574;11.170;2022-09-12T07:46:40;15.90;99.90
13409;DHT22;6775;49.574;11.170;2022-09-12T07:49:08;16.00;99.90
13409;DHT22;6775;49.574;11.170;2022-09-12T07:51:35;16.20;99.90
13409;DHT22;6775;49.574;11.170;2022-09-12T07:54:06;16.30;99.90
13409;DHT22;6775;49.574;11.170;2022-09-12T07:56:34;16.40;99.90
13409;DHT22;6775;49.574;11.170;2022-09-12T07:59:05;16.60;99.90
13409;DHT22;6775;49.574;11.170;2022-09-12T08:01:34;16.80;99.90
13409;DHT22;6775;49.574;11.170;2022-09-12T08:04:02;17.00;99.90
13409;DHT22;6775;49.574;11.170;2022-09-12T08:06:30;17.20;99.90
13409;DHT22;6775;49.574;11.170;2022-09-12T08:09:03;17.30;99.90
13409;DHT22;6775;49.574;11.170;2022-09-12T08:11:31;17.40;99.90
13409;DHT22;6775;49.574;11.170;2022-09-12T08:13:59;17.60;99.90
13409;DHT22;6775;49.574;11.170;2022-09-12T08:16:29;17.80;99.90
13409;DHT22;6775;49.574;11.170;2022-09-12T08:18:59;17.90;99.90
13409;DHT22;6775;49.574;11.170;2022-09-12T08:21:29;18.10;99.90
13409;DHT22;6775;49.574;11.170;2022-09-12T08:23:58;18.30;99.90
13409;DHT22;6775;49.574;11.170;2022-09-12T08:26:27;18.50;99.90
13409;DHT22;6775;49.574;11.170;2022-09-12T08:28:55;18.60;99.90
13409;DHT22;6775;49.574;11.170;2022-09-12T08:31:24;18.80;99.90
13409;DHT22;6775;49.574;11.170;2022-09-12T08:33:55;19.00;99.90
13409;DHT22;6775;49.574;11.170;2022-09-12T08:36:26;19.20;99.90
13409;DHT22;6775;49.574;11.170;2022-09-12T08:38:56;19.20;99.90
13409;DHT22;6775;49.574;11.170;2022-09-12T08:41:29;19.30;99.90
13409;DHT22;6775;49.574;11.170;2022-09-12T08:44:21;19.50;99.90
13409;DHT22;6775;49.574;11.170;2022-09-12T08:47:09;19.70;99.90
13409;DHT22;6775;49.574;11.170;2022-09-12T08:49:45;20.00;99.90
13409;DHT22;6775;49.574;11.170;2022-09-12T08:52:21;20.30;99.90
13409;DHT22;6775;49.574;11.170;2022-09-12T08:54:50;20.50;99.90
13409;DHT22;6775;49.574;11.170;2022-09-12T08:57:20;20.70;99.90
13409;DHT22;6775;49.574;11.170;2022-09-12T08:59:47;20.80;99.90
13409;DHT22;6775;49.574;11.170;2022-09-12T09:02:46;20.90;99.90
13409;DHT22;6775;49.574;11.170;2022-09-12T09:05:24;21.10;99.90
13409;DHT22;6775;49.574;11.170;2022-09-12T09:10:58;21.20;99.90
13409;DHT22;6775;49.574;11.170;2022-09-12T09:13:41;21.30;99.90
13409;DHT22;6775;49.574;11.170;2022-09-12T09:16:33;21.50;99.90
13409;DHT22;6775;49.574;11.170;2022-09-12T09:19:04;21.80;99.90
13409;DHT22;6775;49.574;11.170;2022-09-12T09:21:37;21.90;99.90
13409;DHT22;6775;49.574;11.170;2022-09-12T09:24:11;22.10;99.90
13409;DHT22;6775;49.574;11.170;2022-09-12T09:26:43;22.30;99.90
13409;DHT22;6775;49.574;11.170;2022-09-12T09:29:16;22.40;99.90
13409;DHT22;6775;49.574;11.170;2022-09-12T09:31:47;22.50;99.90
13409;DHT22;6775;49.574;11.170;2022-09-12T09:34:18;22.70;99.90
13409;DHT22;6775;49.574;11.170;2022-09-12T09:36:51;22.70;99.90
13409;DHT22;6775;49.574;11.170;2022-09-12T09:39:30;22.80;99.90
13409;DHT22;6775;49.574;11.170;2022-09-12T09:42:13;22.90;99.90
13409;DHT22;6775;49.574;11.170;2022-09-12T09:44:43;23.10;99.90
13409;DHT22;6775;49.574;11.170;2022-09-12T09:47:14;23.10;99.90
13409;DHT22;6775;49.574;11.170;2022-09-12T09:49:44;23.30;99.90
13409;DHT22;6775;49.574;11.170;2022-09-12T09:52:23;23.30;99.90
13409;DHT22;6775;49.574;11.170;2022-09-12T09:54:55;23.30;99.90
13409;DHT22;6775;49.574;11.170;2022-09-12T09:57:41;23.30;99.90
13409;DHT22;6775;49.574;11.170;2022-09-12T10:00:24;23.40;99.90
13409;DHT22;6775;49.574;11.170;2022-09-12T10:03:27;23.50;99.90
13409;DHT22;6775;49.574;11.170;2022-09-12T10:05:58;23.60;99.90
13409;DHT22;6775;49.574;11.170;2022-09-12T10:08:28;23.50;99.90
13409;DHT22;6775;49.574;11.170;2022-09-12T10:11:02;23.40;99.90
13409;DHT22;6775;49.574;11.170;2022-09-12T10:13:37;23.40;99.90
13409;DHT22;6775;49.574;11.170;2022-09-12T10:16:17;23.50;99.90
13409;DHT22;6775;49.574;11.170;2022-09-12T10:18:45;23.70;99.90
13409;DHT22;6775;49.574;11.170;2022-09-12T10:21:21;23.70;99.90
13409;DHT22;6775;49.574;11.170;2022-09-12T10:24:00;23.70;99.90
13409;DHT22;6775;49.574;11.170;2022-09-12T10:26:36;23.80;99.90
13409;DHT22;6775;49.574;11.170;2022-09-12T10:29:13;23.90;99.90
13409;DHT22;6775;49.574;11.170;2022-09-12T10:31:44;24.00;99.90
13409;DHT22;6775;49.574;11.170;2022-09-12T10:34:23;24.10;99.90
13409;DHT22;6775;49.574;11.170;2022-09-12T10:36:58;24.40;99.90
13409;DHT22;6775;49.574;11.170;2022-09-12T10:39:26;24.60;99.90
13409;DHT22;6775;49.574;11.170;2022-09-12T10:41:56;24.70;99.90
13409;DHT22;6775;49.574;11.170;2022-09-12T10:44:26;24.60;98.20
13409;DHT22;6775;49.574;11.170;2022-09-12T10:46:54;24.60;98.40
13409;DHT22;6775;49.574;11.170;2022-09-12T10:49:27;24.60;97.20
13409;DHT22;6775;49.574;11.170;2022-09-12T10:52:14;24.60;98.20
13409;DHT22;6775;49.574;11.170;2022-09-12T10:54:43;24.60;97.60
13409;DHT22;6775;49.574;11.170;2022-09-12T10:57:34;24.40;96.20
13409;DHT22;6775;49.574;11.170;2022-09-12T11:00:10;24.40;96.10
13409;DHT22;6775;49.574;11.170;2022-09-12T11:02:54;24.40;95.70
13409;DHT22;6775;49.574;11.170;2022-09-12T11:05:36;24.40;96.20
13409;DHT22;6775;49.574;11.170;2022-09-12T11:08:16;24.60;96.20
13409;DHT22;6775;49.574;11.170;2022-09-12T11:10:54;24.60;96.60
13409;DHT22;6775;49.574;11.170;2022-09-12T11:13:36;24.70;96.30
13409;DHT22;6775;49.574;11.170;2022-09-12T11:16:14;24.70;94.80
13409;DHT22;6775;49.574;11.170;2022-09-12T11:19:11;24.70;95.20
13409;DHT22;6775;49.574;11.170;2022-09-12T11:21:55;24.80;95.00
13409;DHT22;6775;49.574;11.170;2022-09-12T11:24:44;24.80;94.70
13409;DHT22;6775;49.574;11.170;2022-09-12T11:27:30;24.60;93.40
13409;DHT22;6775;49.574;11.170;2022-09-12T11:30:06;24.50;94.00
13409;DHT22;6775;49.574;11.170;2022-09-12T11:32:59;24.60;95.10
13409;DHT22;6775;49.574;11.170;2022-09-12T11:35:32;24.80;95.50
13409;DHT22;6775;49.574;11.170;2022-09-12T11:38:14;24.90;94.80
13409;DHT22;6775;49.574;11.170;2022-09-12T11:40:48;24.80;94.20
13409;DHT22;6775;49.574;11.170;2022-09-12T11:43:33;24.70;94.40
13409;DHT22;6775;49.574;11.170;2022-09-12T11:46:09;24.70;95.20
13409;DHT22;6775;49.574;11.170;2022-09-12T11:48:43;24.60;94.10
13409;DHT22;6775;49.574;11.170;2022-09-12T11:51:17;24.40;95.00
13409;DHT22;6775;49.574;11.170;2022-09-12T11:53:55;24.50;96.50
13409;DHT22;6775;49.574;11.170;2022-09-12T11:56:24;24.70;96.90
13409;DHT22;6775;49.574;11.170;2022-09-12T11:58:56;24.70;95.20
13409;DHT22;6775;49.574;11.170;2022-09-12T12:01:31;24.50;95.20
13409;DHT22;6775;49.574;11.170;2022-09-12T12:04:10;24.50;95.60
13409;DHT22;6775;49.574;11.170;2022-09-12T12:06:48;24.50;95.50
13409;DHT22;6775;49.574;11.170;2022-09-12T12:09:17;24.50;95.10
13409;DHT22;6775;49.574;11.170;2022-09-12T12:11:49;24.50;95.10
13409;DHT22;6775;49.574;11.170;2022-09-12T12:14:21;24.50;95.60
13409;DHT22;6775;49.574;11.170;2022-09-12T12:16:51;24.60;95.70
13409;DHT22;6775;49.574;11.170;2022-09-12T12:19:32;24.70;95.50
13409;DHT22;6775;49.574;11.170;2022-09-12T12:22:06;24.70;94.90
13409;DHT22;6775;49.574;11.170;2022-09-12T12:24:34;24.50;94.80
13409;DHT22;6775;49.574;11.170;2022-09-12T12:27:24;24.40;94.20
13409;DHT22;6775;49.574;11.170;2022-09-12T12:33:59;24.30;94.10
13409;DHT22;6775;49.574;11.170;2022-09-12T12:36:36;24.30;95.70
13409;DHT22;6775;49.574;11.170;2022-09-12T12:48:35;24.20;95.70
13409;DHT22;6775;49.574;11.170;2022-09-12T12:51:29;24.00;95.50
13409;DHT22;6775;49.574;11.170;2022-09-12T12:53:59;23.90;96.00
13409;DHT22;6775;49.574;11.170;2022-09-12T12:56:33;23.90;97.10
13409;DHT22;6775;49.574;11.170;2022-09-12T12:59:03;23.70;96.90
13409;DHT22;6775;49.574;11.170;2022-09-12T13:01:44;23.60;96.20
13409;DHT22;6775;49.574;11.170;2022-09-12T13:04:20;23.50;96.90
13409;DHT22;6775;49.574;11.170;2022-09-12T13:06:58;23.40;96.30
13409;DHT22;6775;49.574;11.170;2022-09-12T13:09:38;23.30;96.10
13409;DHT22;6775;49.574;11.170;2022-09-12T13:12:17;23.30;96.30
13409;DHT22;6775;49.574;11.170;2022-09-12T13:14:51;23.20;95.70
13409;DHT22;6775;49.574;11.170;2022-09-12T13:17:33;23.20;95.90
13409;DHT22;6775;49.574;11.170;2022-09-12T13:20:20;23.20;96.10
13409;DHT22;6775;49.574;11.170;2022-09-12T13:22:56;23.30;96.20
13409;DHT22;6775;49.574;11.170;2022-09-12T13:25:29;23.40;96.30
13409;DHT22;6775;49.574;11.170;2022-09-12T13:28:15;23.40;96.00
13409;DHT22;6775;49.574;11.170;2022-09-12T13:30:45;23.40;96.30
13409;DHT22;6775;49.574;11.170;2022-09-12T13:33:20;23.40;96.60
13409;DHT22;6775;49.574;11.170;2022-09-12T13:36:19;23.30;96.50
13409;DHT22;6775;49.574;11.170;2022-09-12T13:39:12;23.30;96.90
13409;DHT22;6775;49.574;11.170;2022-09-12T13:44:43;23.20;98.20
13409;DHT22;6775;49.574;11.170;2022-09-12T13:47:14;23.20;97.30
13409;DHT22;6775;49.574;11.170;2022-09-12T13:49:44;23.00;97.00
13409;DHT22;6775;49.574;11.170;2022-09-12T13:52:17;23.00;97.70
13409;DHT22;6775;49.574;11.170;2022-09-12T13:54:49;22.90;98.60
13409;DHT22;6775;49.574;11.170;2022-09-12T13:57:31;22.80;99.40
13409;DHT22;6775;49.574;11.170;2022-09-12T14:00:04;22.90;99.40
13409;DHT22;6775;49.574;11.170;2022-09-12T14:02:35;22.90;99.80
13409;DHT22;6775;49.574;11.170;2022-09-12T14:05:16;22.80;99.20
13409;DHT22;6775;49.574;11.170;2022-09-12T14:07:52;22.80;98.80
13409;DHT22;6775;49.574;11.170;2022-09-12T14:10:31;22.80;99.20
13409;DHT22;6775;49.574;11.170;2022-09-12T14:13:01;22.70;99.20
13409;DHT22;6775;49.574;11.170;2022-09-12T14:15:32;22.60;99.20
13409;DHT22;6775;49.574;11.170;2022-09-12T14:18:04;22.50;99.00
13409;DHT22;6775;49.574;11.170;2022-09-12T14:20:36;22.50;99.10
13409;DHT22;6775;49.574;11.170;2022-09-12T14:23:10;22.50;98.70
13409;DHT22;6775;49.574;11.170;2022-09-12T14:25:42;22.50;99.10
13409;DHT22;6775;49.574;11.170;2022-09-12T14:28:15;22.50;99.50
13409;DHT22;6775;49.574;11.170;2022-09-12T14:31:00;22.40;99.90
13409;DHT22;6775;49.574;11.170;2022-09-12T14:33:32;22.40;99.80
13409;DHT22;6775;49.574;11.170;2022-09-12T14:36:18;22.40;99.90
13409;DHT22;6775;49.574;11.170;2022-09-12T14:38:48;22.40;99.90
13409;DHT22;6775;49.574;11.170;2022-09-12T14:41:24;22.40;99.90
13409;DHT22;6775;49.574;11.170;2022-09-12T14:43:55;22.40;99.90
13409;DHT22;6775;49.574;11.170;2022-09-12T14:46:27;22.40;99.90
13409;DHT22;6775;49.574;11.170;2022-09-12T14:48:59;22.40;99.60
13409;DHT22;6775;49.574;11.170;2022-09-12T14:51:31;22.40;99.80
13409;DHT22;6775;49.574;11.170;2022-09-12T14:54:00;22.40;99.90
13409;DHT22;6775;49.574;11.170;2022-09-12T14:56:40;22.40;99.90
13409;DHT22;6775;49.574;11.170;2022-09-12T14:59:27;22.40;99.90
13409;DHT22;6775;49.574;11.170;2022-09-12T15:02:25;22.30;99.90
13409;DHT22;6775;49.574;11.170;2022-09-12T15:05:13;22.30;99.80
13409;DHT22;6775;49.574;11.170;2022-09-12T15:07:42;22.20;99.90
13409;DHT22;6775;49.574;11.170;2022-09-12T15:10:18;22.20;99.90
13409;DHT22;6775;49.574;11.170;2022-09-12T15:13:02;22.10;99.90
13409;DHT22;6775;49.574;11.170;2022-09-12T15:15:31;22.00;99.90
13409;DHT22;6775;49.574;11.170;2022-09-12T15:17:59;22.00;99.90
13409;DHT22;6775;49.574;11.170;2022-09-12T15:20:32;22.00;99.90
13409;DHT22;6775;49.574;11.170;2022-09-12T15:23:00;22.00;99.90
13409;DHT22;6775;49.574;11.170;2022-09-12T15:25:28;22.00;99.40
13409;DHT22;6775;49.574;11.170;2022-09-12T15:27:57;21.90;99.60
13409;DHT22;6775;49.574;11.170;2022-09-12T15:30:25;21.90;99.10
13409;DHT22;6775;49.574;11.170;2022-09-12T15:32:53;21.80;99.10
13409;DHT22;6775;49.574;11.170;2022-09-12T15:35:22;21.90;98.80
13409;DHT22;6775;49.574;11.170;2022-09-12T15:37:50;21.90;98.90
13409;DHT22;6775;49.574;11.170;2022-09-12T15:40:18;21.90;99.00
13409;DHT22;6775;49.574;11.170;2022-09-12T15:42:46;21.90;99.40
13409;DHT22;6775;49.574;11.170;2022-09-12T15:45:17;21.80;99.00
13409;DHT22;6775;49.574;11.170;2022-09-12T15:47:46;21.90;99.10
13409;DHT22;6775;49.574;11.170;2022-09-12T15:50:14;21.90;99.90
13409;DHT22;6775;49.574;11.170;2022-09-12T15:52:42;21.80;99.70
13409;DHT22;6775;49.574;11.170;2022-09-12T15:55:14;21.80;99.90
13409;DHT22;6775;49.574;11.170;2022-09-12T15:57:43;21.80;99.90
13409;DHT22;6775;49.574;11.170;2022-09-12T16:00:12;21.80;99.90
13409;DHT22;6775;49.574;11.170;2022-09-12T16:02:41;21.70;99.90
13409;DHT22;6775;49.574;11.170;2022-09-12T16:05:13;21.70;99.90
13409;DHT22;6775;49.574;11.170;2022-09-12T16:07:41;21.70;99.90
13409;DHT22;6775;49.574;11.170;2022-09-12T16:10:13;21.60;99.90
13409;DHT22;6775;49.574;11.170;2022-09-12T16:12:43;21.50;99.90
13409;DHT22;6775;49.574;11.170;2022-09-12T16:15:12;21.50;99.90
13409;DHT22;6775;49.574;11.170;2022-09-12T16:17:42;21.50;99.90
13409;DHT22;6775;49.574;11.170;2022-09-12T16:20:10;21.40;99.90
13409;DHT22;6775;49.574;11.170;2022-09-12T16:22:39;21.30;99.90
13409;DHT22;6775;49.574;11.170;2022-09-12T16:25:08;21.20;99.90
13409;DHT22;6775;49.574;11.170;2022-09-12T16:27:36;21.20;99.90